SHT21B EGJB-EGLL
Flight info
| Callsign | SHT21B |
|---|---|
| Flight time | 0h 36m |
| Altitude | 19000 |
| Route | ORIST L982 ROXOG |
| Aircraft | A319/M-SDE3FGHIRWY/LB1 |
Departure
| Time | 2026-04-24 19:20 |
|---|---|
| Airport | Guernsey Airport (EGJB) |
Arrival
| Time | 2026-04-24 19:56 |
|---|---|
| Airport | London Heathrow Airport (EGLL) |
| Time | Latitude | Longitude | Altitude | Speed | Heading |
|---|---|---|---|---|---|
| 2026-04-24 19:06 | 49.43257 | -2.59687 | 345 ft | 0 kts | 178° |
| 2026-04-24 19:12 | 49.43261 | -2.59687 | 345 ft | 3 kts | 178° |
| 2026-04-24 19:13 | 49.43279 | -2.59688 | 352 ft | 4 kts | 179° |
| 2026-04-24 19:13 | 49.43316 | -2.59688 | 345 ft | 4 kts | 182° |
| 2026-04-24 19:13 | 49.43342 | -2.59685 | 345 ft | 4 kts | 196° |
| 2026-04-24 19:13 | 49.43361 | -2.59668 | 355 ft | 2 kts | 265° |
| 2026-04-24 19:14 | 49.43362 | -2.59665 | 355 ft | 0 kts | 267° |
| 2026-04-24 19:16 | 49.43361 | -2.59687 | 348 ft | 7 kts | 267° |
| 2026-04-24 19:16 | 49.43348 | -2.59793 | 348 ft | 13 kts | 263° |
| 2026-04-24 19:17 | 49.43342 | -2.59950 | 345 ft | 16 kts | 267° |
| 2026-04-24 19:17 | 49.43336 | -2.60146 | 338 ft | 21 kts | 267° |
| 2026-04-24 19:17 | 49.43331 | -2.60370 | 336 ft | 20 kts | 267° |
| 2026-04-24 19:17 | 49.43327 | -2.60605 | 330 ft | 24 kts | 277° |
| 2026-04-24 19:18 | 49.43356 | -2.60850 | 324 ft | 21 kts | 280° |
| 2026-04-24 19:18 | 49.43363 | -2.61039 | 320 ft | 17 kts | 266° |
| 2026-04-24 19:18 | 49.43358 | -2.61231 | 316 ft | 17 kts | 274° |
| 2026-04-24 19:18 | 49.43427 | -2.61354 | 313 ft | 14 kts | 336° |
| 2026-04-24 19:19 | 49.43468 | -2.61318 | 314 ft | 0 kts | 89° |
| 2026-04-24 19:19 | 49.43468 | -2.61298 | 314 ft | 11 kts | 88° |
| 2026-04-24 19:19 | 49.43484 | -2.60677 | 328 ft | 102 kts | 88° |
| 2026-04-24 19:19 | 49.43535 | -2.59287 | 636 ft | 140 kts | 84° |
| 2026-04-24 19:20 | 49.43580 | -2.57805 | 1519 ft | 140 kts | 89° |
| 2026-04-24 19:20 | 49.43619 | -2.56187 | 2073 ft | 161 kts | 90° |
| 2026-04-24 19:20 | 49.43664 | -2.54343 | 2538 ft | 185 kts | 90° |
| 2026-04-24 19:20 | 49.43714 | -2.52248 | 2963 ft | 208 kts | 90° |
| 2026-04-24 19:21 | 49.44000 | -2.49994 | 3630 ft | 224 kts | 63° |
| 2026-04-24 19:21 | 49.45147 | -2.48282 | 3938 ft | 233 kts | 28° |
| 2026-04-24 19:21 | 49.46143 | -2.47671 | 4060 ft | 234 kts | 17° |
| 2026-04-24 19:21 | 49.48261 | -2.46929 | 5251 ft | 237 kts | 11° |
| 2026-04-24 19:22 | 49.49372 | -2.46602 | 5612 ft | 254 kts | 11° |
| 2026-04-24 19:22 | 49.51175 | -2.46058 | 6280 ft | 272 kts | 12° |
| 2026-04-24 19:22 | 49.53056 | -2.45451 | 7219 ft | 279 kts | 13° |
| 2026-04-24 19:22 | 49.54967 | -2.44790 | 8178 ft | 284 kts | 13° |
| 2026-04-24 19:23 | 49.56906 | -2.44084 | 9144 ft | 289 kts | 14° |
| 2026-04-24 19:23 | 49.58883 | -2.43340 | 10110 ft | 295 kts | 14° |
| 2026-04-24 19:23 | 49.60890 | -2.42572 | 10956 ft | 300 kts | 14° |
| 2026-04-24 19:23 | 49.62939 | -2.41785 | 11806 ft | 306 kts | 14° |
| 2026-04-24 19:24 | 49.65019 | -2.40988 | 12642 ft | 311 kts | 14° |
| 2026-04-24 19:24 | 49.67144 | -2.40170 | 13475 ft | 317 kts | 15° |
| 2026-04-24 19:24 | 49.69228 | -2.39004 | 14261 ft | 321 kts | 28° |
| 2026-04-24 19:24 | 49.71127 | -2.37115 | 14795 ft | 334 kts | 41° |
| 2026-04-24 19:25 | 49.72784 | -2.34453 | 15017 ft | 355 kts | 52° |
| 2026-04-24 19:25 | 49.74411 | -2.31435 | 15519 ft | 365 kts | 51° |
| 2026-04-24 19:25 | 49.76062 | -2.28396 | 16163 ft | 371 kts | 51° |
| 2026-04-24 19:25 | 49.77741 | -2.25325 | 16839 ft | 377 kts | 50° |
| 2026-04-24 19:26 | 49.79449 | -2.22220 | 17520 ft | 381 kts | 50° |
| 2026-04-24 19:26 | 49.81178 | -2.19081 | 18202 ft | 386 kts | 50° |
| 2026-04-24 19:26 | 49.82926 | -2.15902 | 18829 ft | 390 kts | 50° |
| 2026-04-24 19:26 | 49.84691 | -2.12681 | 19096 ft | 392 kts | 50° |
| 2026-04-24 19:27 | 49.86449 | -2.09461 | 19182 ft | 389 kts | 50° |
| 2026-04-24 19:27 | 49.88188 | -2.06267 | 19196 ft | 387 kts | 50° |
| 2026-04-24 19:27 | 49.89930 | -2.03083 | 19199 ft | 387 kts | 48° |
| 2026-04-24 19:27 | 49.91959 | -2.00383 | 19202 ft | 385 kts | 31° |
| 2026-04-24 19:28 | 49.94260 | -1.98243 | 19201 ft | 385 kts | 29° |
| 2026-04-24 19:28 | 49.96564 | -1.96124 | 19205 ft | 385 kts | 29° |
| 2026-04-24 19:28 | 49.98871 | -1.94011 | 19204 ft | 385 kts | 29° |
| 2026-04-24 19:28 | 50.01179 | -1.91903 | 19211 ft | 385 kts | 29° |
| 2026-04-24 19:29 | 50.05793 | -1.87682 | 19212 ft | 385 kts | 29° |
| 2026-04-24 19:29 | 50.08100 | -1.85558 | 19217 ft | 385 kts | 29° |
| 2026-04-24 19:29 | 50.10404 | -1.83434 | 19221 ft | 385 kts | 29° |
| 2026-04-24 19:30 | 50.12713 | -1.81306 | 19226 ft | 385 kts | 29° |
| 2026-04-24 19:30 | 50.15020 | -1.79181 | 19227 ft | 385 kts | 29° |
| 2026-04-24 19:30 | 50.17328 | -1.77049 | 19232 ft | 385 kts | 29° |
| 2026-04-24 19:30 | 50.19663 | -1.74886 | 19234 ft | 385 kts | 29° |
| 2026-04-24 19:31 | 50.21966 | -1.72746 | 19239 ft | 385 kts | 29° |
| 2026-04-24 19:31 | 50.24272 | -1.70605 | 19241 ft | 385 kts | 29° |
| 2026-04-24 19:31 | 50.26575 | -1.68468 | 19239 ft | 385 kts | 29° |
| 2026-04-24 19:31 | 50.28878 | -1.66327 | 19241 ft | 385 kts | 29° |
| 2026-04-24 19:32 | 50.31177 | -1.64186 | 19240 ft | 385 kts | 29° |
| 2026-04-24 19:32 | 50.33478 | -1.62043 | 19241 ft | 385 kts | 29° |
| 2026-04-24 19:32 | 50.35694 | -1.59978 | 19243 ft | 385 kts | 29° |
| 2026-04-24 19:32 | 50.37990 | -1.57835 | 19244 ft | 384 kts | 29° |
| 2026-04-24 19:33 | 50.40291 | -1.55687 | 19249 ft | 384 kts | 29° |
| 2026-04-24 19:33 | 50.42582 | -1.53541 | 19249 ft | 384 kts | 29° |
| 2026-04-24 19:33 | 50.44874 | -1.51392 | 19255 ft | 384 kts | 29° |
| 2026-04-24 19:33 | 50.47163 | -1.49243 | 19255 ft | 383 kts | 29° |
| 2026-04-24 19:34 | 50.49449 | -1.47090 | 19252 ft | 383 kts | 29° |
| 2026-04-24 19:34 | 50.51731 | -1.44934 | 19253 ft | 383 kts | 29° |
| 2026-04-24 19:34 | 50.54015 | -1.42773 | 19252 ft | 383 kts | 29° |
| 2026-04-24 19:34 | 50.56295 | -1.40624 | 19252 ft | 382 kts | 29° |
| 2026-04-24 19:35 | 50.58580 | -1.38476 | 19254 ft | 382 kts | 29° |
| 2026-04-24 19:35 | 50.60860 | -1.36329 | 19253 ft | 382 kts | 29° |
| 2026-04-24 19:35 | 50.63143 | -1.34175 | 19258 ft | 382 kts | 29° |
| 2026-04-24 19:35 | 50.65419 | -1.32024 | 19257 ft | 382 kts | 29° |
| 2026-04-24 19:36 | 50.67696 | -1.29868 | 19258 ft | 382 kts | 29° |
| 2026-04-24 19:36 | 50.69972 | -1.27708 | 19259 ft | 382 kts | 29° |
| 2026-04-24 19:36 | 50.72227 | -1.25561 | 19085 ft | 373 kts | 29° |
| 2026-04-24 19:36 | 50.74455 | -1.23438 | 18839 ft | 367 kts | 29° |
| 2026-04-24 19:37 | 50.76626 | -1.21368 | 18597 ft | 362 kts | 29° |
| 2026-04-24 19:37 | 50.78769 | -1.19326 | 18126 ft | 358 kts | 29° |
| 2026-04-24 19:37 | 50.80894 | -1.17302 | 17653 ft | 355 kts | 29° |
| 2026-04-24 19:37 | 50.83004 | -1.15291 | 17192 ft | 352 kts | 30° |
| 2026-04-24 19:38 | 50.85092 | -1.13294 | 16722 ft | 350 kts | 30° |
| 2026-04-24 19:38 | 50.87167 | -1.11301 | 16254 ft | 348 kts | 30° |
| 2026-04-24 19:38 | 50.89229 | -1.09321 | 15798 ft | 345 kts | 30° |
| 2026-04-24 19:38 | 50.91006 | -1.07615 | 15414 ft | 343 kts | 30° |
| 2026-04-24 19:39 | 50.93044 | -1.05654 | 14938 ft | 342 kts | 31° |
| 2026-04-24 19:39 | 50.95070 | -1.03703 | 14489 ft | 340 kts | 31° |
| 2026-04-24 19:39 | 50.97088 | -1.01761 | 14034 ft | 338 kts | 31° |
| 2026-04-24 19:39 | 50.99094 | -0.99830 | 13545 ft | 336 kts | 31° |
| 2026-04-24 19:40 | 51.00945 | -0.97608 | 13258 ft | 332 kts | 44° |
| 2026-04-24 19:40 | 51.02505 | -0.94912 | 13244 ft | 332 kts | 49° |
| 2026-04-24 19:40 | 51.04040 | -0.92170 | 13245 ft | 332 kts | 49° |
| 2026-04-24 19:40 | 51.05582 | -0.89429 | 13252 ft | 332 kts | 48° |
| 2026-04-24 19:41 | 51.07122 | -0.86695 | 13251 ft | 333 kts | 48° |
| 2026-04-24 19:41 | 51.08743 | -0.84082 | 13243 ft | 332 kts | 37° |
| 2026-04-24 19:41 | 51.10664 | -0.82062 | 12903 ft | 329 kts | 31° |
| 2026-04-24 19:41 | 51.12606 | -0.80169 | 12472 ft | 327 kts | 31° |
| 2026-04-24 19:42 | 51.14543 | -0.78290 | 12090 ft | 325 kts | 31° |
| 2026-04-24 19:42 | 51.16463 | -0.76427 | 11672 ft | 322 kts | 31° |
| 2026-04-24 19:42 | 51.18366 | -0.74581 | 11184 ft | 318 kts | 31° |
| 2026-04-24 19:42 | 51.20268 | -0.72732 | 10662 ft | 314 kts | 31° |
| 2026-04-24 19:43 | 51.22075 | -0.70942 | 10496 ft | 298 kts | 34° |
| 2026-04-24 19:43 | 51.23521 | -0.68649 | 10153 ft | 292 kts | 56° |
| 2026-04-24 19:43 | 51.24445 | -0.65803 | 9676 ft | 289 kts | 65° |
| 2026-04-24 19:43 | 51.25240 | -0.63049 | 9215 ft | 287 kts | 65° |
| 2026-04-24 19:44 | 51.26074 | -0.60149 | 8738 ft | 284 kts | 65° |
| 2026-04-24 19:44 | 51.26891 | -0.57306 | 8339 ft | 282 kts | 65° |
| 2026-04-24 19:44 | 51.27705 | -0.54468 | 8156 ft | 280 kts | 65° |
| 2026-04-24 19:44 | 51.28509 | -0.51675 | 7910 ft | 271 kts | 65° |
| 2026-04-24 19:45 | 51.29306 | -0.48996 | 7602 ft | 269 kts | 60° |
| 2026-04-24 19:45 | 51.30630 | -0.46887 | 7307 ft | 275 kts | 30° |
| 2026-04-24 19:45 | 51.32444 | -0.46058 | 7261 ft | 267 kts | 1° |
| 2026-04-24 19:45 | 51.34185 | -0.46700 | 7268 ft | 253 kts | 330° |
| 2026-04-24 19:46 | 51.35439 | -0.48584 | 7275 ft | 248 kts | 300° |
| 2026-04-24 19:46 | 51.35965 | -0.51178 | 7274 ft | 246 kts | 278° |
| 2026-04-24 19:46 | 51.36209 | -0.53895 | 7246 ft | 246 kts | 276° |
| 2026-04-24 19:46 | 51.36421 | -0.56607 | 6979 ft | 245 kts | 276° |
| 2026-04-24 19:47 | 51.36625 | -0.59309 | 6594 ft | 244 kts | 276° |
| 2026-04-24 19:47 | 51.36828 | -0.61999 | 6211 ft | 243 kts | 276° |
| 2026-04-24 19:47 | 51.37028 | -0.64692 | 5873 ft | 243 kts | 276° |
| 2026-04-24 19:47 | 51.37227 | -0.67376 | 5469 ft | 243 kts | 276° |
| 2026-04-24 19:48 | 51.37423 | -0.70058 | 5109 ft | 242 kts | 276° |
| 2026-04-24 19:48 | 51.37627 | -0.72778 | 4836 ft | 243 kts | 276° |
| 2026-04-24 19:48 | 51.38049 | -0.78075 | 4273 ft | 241 kts | 284° |
| 2026-04-24 19:49 | 51.40376 | -0.81477 | 3993 ft | 232 kts | 353° |
| 2026-04-24 19:49 | 51.43467 | -0.81746 | 3871 ft | 215 kts | 2° |
| 2026-04-24 19:50 | 51.47345 | -0.80332 | 3420 ft | 183 kts | 63° |
| 2026-04-24 19:50 | 51.47589 | -0.78371 | 3252 ft | 182 kts | 92° |
| 2026-04-24 19:51 | 51.47611 | -0.74330 | 2981 ft | 179 kts | 90° |
| 2026-04-24 19:51 | 51.47625 | -0.72328 | 2967 ft | 180 kts | 90° |
| 2026-04-24 19:52 | 51.47650 | -0.68216 | 2582 ft | 183 kts | 90° |
| 2026-04-24 19:52 | 51.47662 | -0.66182 | 2321 ft | 181 kts | 90° |
| 2026-04-24 19:52 | 51.47673 | -0.64171 | 2068 ft | 180 kts | 90° |
| 2026-04-24 19:52 | 51.47684 | -0.62187 | 1826 ft | 176 kts | 90° |
| 2026-04-24 19:53 | 51.47694 | -0.60242 | 1581 ft | 173 kts | 90° |
| 2026-04-24 19:53 | 51.47704 | -0.58419 | 1370 ft | 151 kts | 90° |
| 2026-04-24 19:53 | 51.47716 | -0.55917 | 1055 ft | 123 kts | 90° |
| 2026-04-24 19:54 | 51.47722 | -0.54555 | 871 ft | 121 kts | 90° |
| 2026-04-24 19:54 | 51.47729 | -0.53213 | 710 ft | 118 kts | 90° |
| 2026-04-24 19:54 | 51.47734 | -0.51893 | 555 ft | 118 kts | 91° |
| 2026-04-24 19:54 | 51.47740 | -0.50582 | 386 ft | 117 kts | 91° |
| 2026-04-24 19:55 | 51.47744 | -0.49723 | 292 ft | 116 kts | 91° |
| 2026-04-24 19:55 | 51.47750 | -0.48019 | 96 ft | 114 kts | 91° |
| 2026-04-24 19:55 | 51.47753 | -0.46924 | 89 ft | 80 kts | 89° |
| 2026-04-24 19:55 | 51.47758 | -0.46039 | 88 ft | 77 kts | 90° |
| 2026-04-24 19:56 | 51.47735 | -0.45501 | 88 ft | 26 kts | 133° |
| 2026-04-24 19:56 | 51.47622 | -0.45474 | 90 ft | 12 kts | 197° |
| 2026-04-24 19:56 | 51.47595 | -0.45584 | 88 ft | 11 kts | 270° |
| 2026-04-24 19:56 | 51.47596 | -0.45720 | 89 ft | 14 kts | 271° |
| 2026-04-24 19:57 | 51.47595 | -0.45858 | 89 ft | 11 kts | 268° |
| 2026-04-24 19:57 | 51.47594 | -0.45964 | 87 ft | 8 kts | 270° |
| 2026-04-24 19:57 | 51.47595 | -0.46075 | 87 ft | 12 kts | 270° |
| 2026-04-24 19:57 | 51.47594 | -0.46260 | 87 ft | 18 kts | 269° |
| 2026-04-24 19:58 | 51.47593 | -0.46439 | 87 ft | 12 kts | 270° |
| 2026-04-24 19:58 | 51.47593 | -0.46574 | 87 ft | 12 kts | 271° |
| 2026-04-24 19:58 | 51.47594 | -0.46705 | 87 ft | 12 kts | 267° |
| 2026-04-24 19:58 | 51.47587 | -0.46850 | 87 ft | 14 kts | 257° |
| 2026-04-24 19:59 | 51.47577 | -0.47023 | 87 ft | 17 kts | 269° |
| 2026-04-24 19:59 | 51.47581 | -0.47221 | 88 ft | 19 kts | 270° |
| 2026-04-24 19:59 | 51.47580 | -0.47452 | 88 ft | 22 kts | 267° |
| 2026-04-24 19:59 | 51.47579 | -0.47709 | 87 ft | 23 kts | 268° |
| 2026-04-24 20:00 | 51.47578 | -0.47968 | 87 ft | 23 kts | 271° |
| 2026-04-24 20:00 | 51.47578 | -0.48205 | 87 ft | 20 kts | 269° |
| 2026-04-24 20:00 | 51.47578 | -0.48414 | 90 ft | 17 kts | 268° |
| 2026-04-24 20:00 | 51.47492 | -0.48479 | 87 ft | 15 kts | 179° |
| 2026-04-24 20:01 | 51.47404 | -0.48485 | 87 ft | 10 kts | 203° |
| 2026-04-24 20:01 | 51.47399 | -0.48550 | 87 ft | 5 kts | 270° |
| 2026-04-24 20:01 | 51.47399 | -0.48590 | 87 ft | 1 kts | 269° |
| 2026-04-24 20:01 | 51.47399 | -0.48592 | 87 ft | 0 kts | 269° |